sensor_id;sensor_type;location;lat;lon;timestamp;pressure;altitude;pressure_sealevel;temperature;humidity
36284;BME280;56085;48.910;9.478;2023-02-02T00:00:50;98749.41;;;4.66;71.76
36284;BME280;56085;48.910;9.478;2023-02-02T00:03:15;98747.75;;;4.65;72.01
36284;BME280;56085;48.910;9.478;2023-02-02T00:05:45;98741.97;;;4.67;72.26
36284;BME280;56085;48.910;9.478;2023-02-02T00:08:10;98745.03;;;4.65;72.29
36284;BME280;56085;48.910;9.478;2023-02-02T00:10:35;98736.31;;;4.63;72.11
36284;BME280;56085;48.910;9.478;2023-02-02T00:13:00;98741.59;;;4.60;72.73
36284;BME280;56085;48.910;9.478;2023-02-02T00:15:25;98734.00;;;4.57;72.87
36284;BME280;56085;48.910;9.478;2023-02-02T00:17:51;98729.94;;;4.54;72.76
36284;BME280;56085;48.910;9.478;2023-02-02T00:20:16;98733.84;;;4.53;73.19
36284;BME280;56085;48.910;9.478;2023-02-02T00:22:41;98731.56;;;4.55;73.41
36284;BME280;56085;48.910;9.478;2023-02-02T00:25:06;98719.31;;;4.52;73.84
36284;BME280;56085;48.910;9.478;2023-02-02T00:27:32;98733.50;;;4.54;73.66
36284;BME280;56085;48.910;9.478;2023-02-02T00:29:57;98739.16;;;4.58;73.84
36284;BME280;56085;48.910;9.478;2023-02-02T00:32:22;98743.53;;;4.59;73.87
36284;BME280;56085;48.910;9.478;2023-02-02T00:34:47;98741.09;;;4.58;74.09
36284;BME280;56085;48.910;9.478;2023-02-02T00:37:13;98731.56;;;4.55;74.37
36284;BME280;56085;48.910;9.478;2023-02-02T00:39:38;98740.72;;;4.50;74.12
36284;BME280;56085;48.910;9.478;2023-02-02T00:42:03;98738.47;;;4.52;74.79
36284;BME280;56085;48.910;9.478;2023-02-02T00:44:28;98733.00;;;4.52;74.68
36284;BME280;56085;48.910;9.478;2023-02-02T00:47:12;98735.75;;;4.52;74.69
36284;BME280;56085;48.910;9.478;2023-02-02T00:49:37;98730.25;;;4.52;74.76
36284;BME280;56085;48.910;9.478;2023-02-02T00:52:03;98737.69;;;4.52;75.09
36284;BME280;56085;48.910;9.478;2023-02-02T00:54:28;98724.00;;;4.52;75.13
36284;BME280;56085;48.910;9.478;2023-02-02T00:56:53;98738.78;;;4.51;75.36
36284;BME280;56085;48.910;9.478;2023-02-02T00:59:18;98730.25;;;4.52;75.66
36284;BME280;56085;48.910;9.478;2023-02-02T01:01:43;98734.94;;;4.52;75.42
36284;BME280;56085;48.910;9.478;2023-02-02T01:04:09;98733.00;;;4.52;75.49
36284;BME280;56085;48.910;9.478;2023-02-02T01:06:34;98722.88;;;4.53;76.19
36284;BME280;56085;48.910;9.478;2023-02-02T01:08:59;98728.03;;;4.54;75.26
36284;BME280;56085;48.910;9.478;2023-02-02T01:11:24;98733.50;;;4.54;75.99
36284;BME280;56085;48.910;9.478;2023-02-02T01:13:49;98731.25;;;4.57;75.98
36284;BME280;56085;48.910;9.478;2023-02-02T01:16:15;98739.16;;;4.58;75.76
36284;BME280;56085;48.910;9.478;2023-02-02T01:18:40;98740.47;;;4.61;76.50
36284;BME280;56085;48.910;9.478;2023-02-02T01:21:07;98729.53;;;4.61;76.35
36284;BME280;56085;48.910;9.478;2023-02-02T01:23:32;98737.75;;;4.61;75.96
36284;BME280;56085;48.910;9.478;2023-02-02T01:25:59;98728.41;;;4.62;76.25
36284;BME280;56085;48.910;9.478;2023-02-02T01:28:25;98721.00;;;4.62;76.16
36284;BME280;56085;48.910;9.478;2023-02-02T01:30:50;98731.34;;;4.65;76.15
36284;BME280;56085;48.910;9.478;2023-02-02T01:33:15;98728.28;;;4.67;76.93
36284;BME280;56085;48.910;9.478;2023-02-02T01:35:47;98746.34;;;4.68;76.67
36284;BME280;56085;48.910;9.478;2023-02-02T01:38:13;98740.88;;;4.68;76.67
36284;BME280;56085;48.910;9.478;2023-02-02T01:40:45;98737.00;;;4.69;77.31
36284;BME280;56085;48.910;9.478;2023-02-02T01:43:21;98739.75;;;4.69;76.85
36284;BME280;56085;48.910;9.478;2023-02-02T01:45:47;98749.56;;;4.70;76.98
36284;BME280;56085;48.910;9.478;2023-02-02T01:48:12;98742.50;;;4.69;77.01
36284;BME280;56085;48.910;9.478;2023-02-02T01:50:37;98742.28;;;4.65;77.39
36284;BME280;56085;48.910;9.478;2023-02-02T01:53:03;98734.69;;;4.62;77.29
36284;BME280;56085;48.910;9.478;2023-02-02T01:55:30;98734.22;;;4.60;78.27
36284;BME280;56085;48.910;9.478;2023-02-02T01:57:59;98740.78;;;4.59;78.10
36284;BME280;56085;48.910;9.478;2023-02-02T02:00:26;98733.38;;;4.60;78.10
36284;BME280;56085;48.910;9.478;2023-02-02T02:03:01;98721.94;;;4.58;78.50
36284;BME280;56085;48.910;9.478;2023-02-02T02:05:33;98727.22;;;4.54;79.10
36284;BME280;56085;48.910;9.478;2023-02-02T02:08:04;98722.03;;;4.52;78.84
36284;BME280;56085;48.910;9.478;2023-02-02T02:10:31;98719.63;;;4.51;79.04
36284;BME280;56085;48.910;9.478;2023-02-02T02:12:57;98708.97;;;4.49;79.20
36284;BME280;56085;48.910;9.478;2023-02-02T02:15:22;98718.81;;;4.50;79.61
36284;BME280;56085;48.910;9.478;2023-02-02T02:20:52;98724.31;;;4.50;79.61
36284;BME280;56085;48.910;9.478;2023-02-02T02:32:03;98715.47;;;4.53;80.50
36284;BME280;56085;48.910;9.478;2023-02-02T02:34:34;98715.34;;;4.59;80.42
36284;BME280;56085;48.910;9.478;2023-02-02T02:37:07;98716.16;;;4.59;80.58
36284;BME280;56085;48.910;9.478;2023-02-02T02:42:03;98713.41;;;4.59;81.10
36284;BME280;56085;48.910;9.478;2023-02-02T02:44:30;98726.00;;;4.60;80.61
36284;BME280;56085;48.910;9.478;2023-02-02T02:46:56;98721.63;;;4.59;80.73
36284;BME280;56085;48.910;9.478;2023-02-02T02:49:22;98722.75;;;4.58;80.40
36284;BME280;56085;48.910;9.478;2023-02-02T02:51:51;98722.75;;;4.58;81.15
36284;BME280;56085;48.910;9.478;2023-02-02T02:54:17;98723.56;;;4.59;81.05
36284;BME280;56085;48.910;9.478;2023-02-02T02:59:36;98720.31;;;4.57;81.17
36284;BME280;56085;48.910;9.478;2023-02-02T03:02:12;98740.00;;;4.59;81.43
36284;BME280;56085;48.910;9.478;2023-02-02T03:07:34;98717.88;;;4.55;82.16
36284;BME280;56085;48.910;9.478;2023-02-02T03:10:02;98729.34;;;4.57;81.69
36284;BME280;56085;48.910;9.478;2023-02-02T03:12:28;98725.78;;;4.57;81.88
36284;BME280;56085;48.910;9.478;2023-02-02T03:14:53;98722.56;;;4.54;81.90
36284;BME280;56085;48.910;9.478;2023-02-02T03:17:18;98724.16;;;4.55;82.14
36284;BME280;56085;48.910;9.478;2023-02-02T03:19:43;98716.25;;;4.54;82.37
36284;BME280;56085;48.910;9.478;2023-02-02T03:22:09;98713.84;;;4.52;82.51
36284;BME280;56085;48.910;9.478;2023-02-02T03:24:34;98717.41;;;4.53;82.16
36284;BME280;56085;48.910;9.478;2023-02-02T03:26:59;98739.00;;;4.54;82.95
36284;BME280;56085;48.910;9.478;2023-02-02T03:29:24;98739.00;;;4.54;83.13
36284;BME280;56085;48.910;9.478;2023-02-02T03:31:49;98730.25;;;4.52;82.96
36284;BME280;56085;48.910;9.478;2023-02-02T03:34:15;98738.16;;;4.54;82.56
36284;BME280;56085;48.910;9.478;2023-02-02T03:36:40;98730.25;;;4.52;83.41
36284;BME280;56085;48.910;9.478;2023-02-02T03:39:05;98729.47;;;4.52;83.32
36284;BME280;56085;48.910;9.478;2023-02-02T03:41:30;98726.41;;;4.53;83.45
36284;BME280;56085;48.910;9.478;2023-02-02T03:43:55;98732.88;;;4.58;83.48
36284;BME280;56085;48.910;9.478;2023-02-02T03:46:21;98729.53;;;4.61;83.09
36284;BME280;56085;48.910;9.478;2023-02-02T03:48:46;98739.38;;;4.62;83.38
36284;BME280;56085;48.910;9.478;2023-02-02T03:51:12;98737.91;;;4.64;83.38
36284;BME280;56085;48.910;9.478;2023-02-02T03:53:38;98752.13;;;4.66;83.58
36284;BME280;56085;48.910;9.478;2023-02-02T03:56:03;98758.72;;;4.65;83.17
36284;BME280;56085;48.910;9.478;2023-02-02T03:58:29;98758.41;;;4.67;83.55
36284;BME280;56085;48.910;9.478;2023-02-02T04:00:58;98743.91;;;4.66;83.30
36284;BME280;56085;48.910;9.478;2023-02-02T04:03:23;98757.91;;;4.65;82.98
36284;BME280;56085;48.910;9.478;2023-02-02T04:05:48;98756.50;;;4.67;83.26
36284;BME280;56085;48.910;9.478;2023-02-02T04:08:14;98758.94;;;4.69;83.71
36284;BME280;56085;48.910;9.478;2023-02-02T04:10:39;98775.34;;;4.69;83.23
36284;BME280;56085;48.910;9.478;2023-02-02T04:13:06;98763.25;;;4.70;82.86
36284;BME280;56085;48.910;9.478;2023-02-02T04:15:31;98755.03;;;4.70;83.39
36284;BME280;56085;48.910;9.478;2023-02-02T04:17:56;98760.03;;;4.68;83.51
36284;BME280;56085;48.910;9.478;2023-02-02T04:20:22;98758.09;;;4.68;83.67
36284;BME280;56085;48.910;9.478;2023-02-02T04:22:47;98760.84;;;4.68;83.44
36284;BME280;56085;48.910;9.478;2023-02-02T04:25:12;98767.16;;;4.69;83.38
36284;BME280;56085;48.910;9.478;2023-02-02T04:27:37;98756.66;;;4.71;82.93
36284;BME280;56085;48.910;9.478;2023-02-02T04:30:02;98772.31;;;4.70;83.62
36284;BME280;56085;48.910;9.478;2023-02-02T04:32:28;98776.66;;;4.71;83.95
36284;BME280;56085;48.910;9.478;2023-02-02T04:34:53;98790.66;;;4.70;83.92
36284;BME280;56085;48.910;9.478;2023-02-02T04:37:18;98780.53;;;4.70;83.48
36284;BME280;56085;48.910;9.478;2023-02-02T04:39:44;98766.31;;;4.68;83.46
36284;BME280;56085;48.910;9.478;2023-02-02T04:42:09;98783.56;;;4.69;83.54
36284;BME280;56085;48.910;9.478;2023-02-02T04:44:34;98773.41;;;4.69;83.24
36284;BME280;56085;48.910;9.478;2023-02-02T04:46:59;98780.53;;;4.70;83.97
36284;BME280;56085;48.910;9.478;2023-02-02T04:49:24;98784.38;;;4.69;84.11
36284;BME280;56085;48.910;9.478;2023-02-02T04:51:50;98779.69;;;4.70;84.11
36284;BME280;56085;48.910;9.478;2023-02-02T04:54:15;98788.22;;;4.68;83.66
36284;BME280;56085;48.910;9.478;2023-02-02T04:56:40;98777.28;;;4.68;83.70
36284;BME280;56085;48.910;9.478;2023-02-02T04:59:05;98787.13;;;4.69;83.91
36284;BME280;56085;48.910;9.478;2023-02-02T05:01:30;98804.34;;;4.70;83.79
36284;BME280;56085;48.910;9.478;2023-02-02T05:03:56;98796.75;;;4.67;83.76
36284;BME280;56085;48.910;9.478;2023-02-02T05:06:21;98798.69;;;4.66;83.80
36284;BME280;56085;48.910;9.478;2023-02-02T05:08:47;98805.50;;;4.69;83.88
36284;BME280;56085;48.910;9.478;2023-02-02T05:11:14;98805.50;;;4.69;83.75
36284;BME280;56085;48.910;9.478;2023-02-02T05:13:39;98802.44;;;4.70;84.30
36284;BME280;56085;48.910;9.478;2023-02-02T05:16:05;98801.00;;;4.73;83.91
36284;BME280;56085;48.910;9.478;2023-02-02T05:18:30;98803.25;;;4.71;83.97
36284;BME280;56085;48.910;9.478;2023-02-02T05:20:59;98805.66;;;4.72;83.78
36284;BME280;56085;48.910;9.478;2023-02-02T05:23:25;98808.09;;;4.74;83.33
36284;BME280;56085;48.910;9.478;2023-02-02T05:25:51;98800.41;;;4.76;83.73
36284;BME280;56085;48.910;9.478;2023-02-02T05:28:17;98800.41;;;4.76;83.46
36284;BME280;56085;48.910;9.478;2023-02-02T05:30:42;98804.25;;;4.75;84.10
36284;BME280;56085;48.910;9.478;2023-02-02T05:33:07;98807.47;;;4.77;84.36
36284;BME280;56085;48.910;9.478;2023-02-02T05:35:32;98811.03;;;4.78;84.28
36284;BME280;56085;48.910;9.478;2023-02-02T05:37:58;98813.78;;;4.78;83.69
36284;BME280;56085;48.910;9.478;2023-02-02T05:40:23;98809.09;;;4.78;83.79
36284;BME280;56085;48.910;9.478;2023-02-02T05:42:48;98825.53;;;4.78;83.84
36284;BME280;56085;48.910;9.478;2023-02-02T05:45:14;98829.38;;;4.77;84.24
36284;BME280;56085;48.910;9.478;2023-02-02T05:47:39;98820.06;;;4.78;83.65
36284;BME280;56085;48.910;9.478;2023-02-02T05:50:04;98823.09;;;4.77;84.18
36284;BME280;56085;48.910;9.478;2023-02-02T05:52:30;98819.25;;;4.78;83.69
36284;BME280;56085;48.910;9.478;2023-02-02T05:54:57;98814.09;;;4.76;83.61
36284;BME280;56085;48.910;9.478;2023-02-02T05:57:22;98833.28;;;4.76;83.58
36284;BME280;56085;48.910;9.478;2023-02-02T05:59:47;98834.06;;;4.77;83.40
36284;BME280;56085;48.910;9.478;2023-02-02T06:02:12;98827.78;;;4.76;83.44
36284;BME280;56085;48.910;9.478;2023-02-02T06:04:38;98830.22;;;4.78;83.68
36284;BME280;56085;48.910;9.478;2023-02-02T06:07:03;98829.69;;;4.76;83.78
36284;BME280;56085;48.910;9.478;2023-02-02T06:09:28;98828.91;;;4.75;83.82
36284;BME280;56085;48.910;9.478;2023-02-02T06:11:53;98835.81;;;4.72;84.34
36284;BME280;56085;48.910;9.478;2023-02-02T06:14:18;98832.56;;;4.70;83.59
36284;BME280;56085;48.910;9.478;2023-02-02T06:16:44;98838.06;;;4.70;84.13
36284;BME280;56085;48.910;9.478;2023-02-02T06:19:09;98838.53;;;4.72;84.14
36284;BME280;56085;48.910;9.478;2023-02-02T06:21:34;98842.59;;;4.75;84.20
36284;BME280;56085;48.910;9.478;2023-02-02T06:23:59;98852.75;;;4.75;84.23
36284;BME280;56085;48.910;9.478;2023-02-02T06:26:25;98855.78;;;4.73;84.26
36284;BME280;56085;48.910;9.478;2023-02-02T06:28:51;98850.28;;;4.73;84.40
36284;BME280;56085;48.910;9.478;2023-02-02T06:31:17;98855.28;;;4.71;84.55
36284;BME280;56085;48.910;9.478;2023-02-02T06:33:46;98867.03;;;4.71;84.19
36284;BME280;56085;48.910;9.478;2023-02-02T06:36:12;98868.66;;;4.72;84.31
36284;BME280;56085;48.910;9.478;2023-02-02T06:38:37;98861.25;;;4.73;84.42
36284;BME280;56085;48.910;9.478;2023-02-02T06:41:02;98850.59;;;4.71;84.44
36284;BME280;56085;48.910;9.478;2023-02-02T06:43:28;98856.59;;;4.74;84.43
36284;BME280;56085;48.910;9.478;2023-02-02T06:45:53;98853.03;;;4.73;84.65
36284;BME280;56085;48.910;9.478;2023-02-02T06:48:20;98853.56;;;4.75;84.07
36284;BME280;56085;48.910;9.478;2023-02-02T06:50:45;98857.09;;;4.76;84.13
36284;BME280;56085;48.910;9.478;2023-02-02T06:53:10;98858.72;;;4.77;84.36
36284;BME280;56085;48.910;9.478;2023-02-02T06:55:36;98851.00;;;4.79;84.74
36284;BME280;56085;48.910;9.478;2023-02-02T06:58:01;98852.94;;;4.78;84.28
36284;BME280;56085;48.910;9.478;2023-02-02T07:00:27;98862.25;;;4.77;84.91
36284;BME280;56085;48.910;9.478;2023-02-02T07:02:53;98857.09;;;4.76;84.51
36284;BME280;56085;48.910;9.478;2023-02-02T07:05:18;98871.00;;;4.79;83.90
36284;BME280;56085;48.910;9.478;2023-02-02T07:07:44;98871.00;;;4.79;84.78
36284;BME280;56085;48.910;9.478;2023-02-02T07:10:09;98881.13;;;4.79;84.67
36284;BME280;56085;48.910;9.478;2023-02-02T07:12:35;98872.28;;;4.82;84.09
36284;BME280;56085;48.910;9.478;2023-02-02T07:15:00;98870.69;;;4.81;84.69
36284;BME280;56085;48.910;9.478;2023-02-02T07:17:25;98881.66;;;4.81;84.22
36284;BME280;56085;48.910;9.478;2023-02-02T07:19:50;98873.44;;;4.81;84.13
36284;BME280;56085;48.910;9.478;2023-02-02T07:22:15;98871.50;;;4.81;84.79
36284;BME280;56085;48.910;9.478;2023-02-02T07:24:41;98873.13;;;4.82;84.44
36284;BME280;56085;48.910;9.478;2023-02-02T07:27:06;98873.59;;;4.84;84.36
36284;BME280;56085;48.910;9.478;2023-02-02T07:29:31;98892.00;;;4.84;84.18
36284;BME280;56085;48.910;9.478;2023-02-02T07:31:56;98851.69;;;4.84;84.41
36284;BME280;56085;48.910;9.478;2023-02-02T07:34:22;98875.25;;;4.85;84.12
36284;BME280;56085;48.910;9.478;2023-02-02T07:36:47;98876.88;;;4.86;83.83
36284;BME280;56085;48.910;9.478;2023-02-02T07:39:12;98874.44;;;4.85;84.16
36284;BME280;56085;48.910;9.478;2023-02-02T07:41:37;98883.16;;;4.87;83.73
36284;BME280;56085;48.910;9.478;2023-02-02T07:44:03;98871.88;;;4.88;83.89
36284;BME280;56085;48.910;9.478;2023-02-02T07:46:28;98880.59;;;4.90;84.16
36284;BME280;56085;48.910;9.478;2023-02-02T07:48:54;98879.78;;;4.90;83.85
36284;BME280;56085;48.910;9.478;2023-02-02T07:51:20;98874.81;;;4.92;84.03
36284;BME280;56085;48.910;9.478;2023-02-02T07:53:46;98880.78;;;4.94;83.62
36284;BME280;56085;48.910;9.478;2023-02-02T07:56:13;98880.00;;;4.94;84.44
36284;BME280;56085;48.910;9.478;2023-02-02T07:58:39;98875.00;;;4.96;84.00
36284;BME280;56085;48.910;9.478;2023-02-02T08:01:05;98876.94;;;4.95;83.89
36284;BME280;56085;48.910;9.478;2023-02-02T08:03:30;98887.59;;;4.97;84.25
36284;BME280;56085;48.910;9.478;2023-02-02T08:05:56;98880.97;;;4.98;84.09
36284;BME280;56085;48.910;9.478;2023-02-02T08:08:21;98882.59;;;4.99;83.63
36284;BME280;56085;48.910;9.478;2023-02-02T08:10:50;98891.63;;;4.99;84.30
36284;BME280;56085;48.910;9.478;2023-02-02T08:13:15;98885.34;;;4.99;84.31
36284;BME280;56085;48.910;9.478;2023-02-02T08:15:41;98893.88;;;4.97;84.24
36284;BME280;56085;48.910;9.478;2023-02-02T08:18:06;98905.63;;;4.98;84.20
36284;BME280;56085;48.910;9.478;2023-02-02T08:20:31;98915.00;;;4.97;83.81
36284;BME280;56085;48.910;9.478;2023-02-02T08:22:56;98915.00;;;4.97;83.91
36284;BME280;56085;48.910;9.478;2023-02-02T08:25:21;98920.78;;;4.95;84.12
36284;BME280;56085;48.910;9.478;2023-02-02T08:27:46;98925.75;;;4.93;84.13
36284;BME280;56085;48.910;9.478;2023-02-02T08:30:12;98934.28;;;4.92;83.81
36284;BME280;56085;48.910;9.478;2023-02-02T08:32:37;98931.84;;;4.90;84.19
36284;BME280;56085;48.910;9.478;2023-02-02T08:35:02;98935.69;;;4.89;84.18
36284;BME280;56085;48.910;9.478;2023-02-02T08:37:28;98937.84;;;4.92;83.43
36284;BME280;56085;48.910;9.478;2023-02-02T08:39:53;98933.47;;;4.91;83.96
36284;BME280;56085;48.910;9.478;2023-02-02T08:42:18;98938.13;;;4.90;83.39
36284;BME280;56085;48.910;9.478;2023-02-02T08:44:43;98944.75;;;4.89;84.14
36284;BME280;56085;48.910;9.478;2023-02-02T08:47:08;98940.38;;;4.88;83.57
36284;BME280;56085;48.910;9.478;2023-02-02T08:49:34;98943.59;;;4.90;83.76
36284;BME280;56085;48.910;9.478;2023-02-02T08:51:59;98941.69;;;4.91;83.63
36284;BME280;56085;48.910;9.478;2023-02-02T08:54:24;98944.94;;;4.93;83.86
36284;BME280;56085;48.910;9.478;2023-02-02T08:56:49;98947.69;;;4.93;84.13
36284;BME280;56085;48.910;9.478;2023-02-02T08:59:14;98948.69;;;4.97;84.10
36284;BME280;56085;48.910;9.478;2023-02-02T09:01:39;98940.47;;;4.97;83.93
36284;BME280;56085;48.910;9.478;2023-02-02T09:04:05;98933.88;;;4.98;83.59
36284;BME280;56085;48.910;9.478;2023-02-02T09:06:32;98946.16;;;5.01;84.01
36284;BME280;56085;48.910;9.478;2023-02-02T09:08:57;98932.44;;;5.01;84.43
36284;BME280;56085;48.910;9.478;2023-02-02T09:11:23;98960.34;;;5.03;84.21
36284;BME280;56085;48.910;9.478;2023-02-02T09:13:48;98948.28;;;5.04;84.27
36284;BME280;56085;48.910;9.478;2023-02-02T09:16:17;98947.66;;;5.07;83.94
36284;BME280;56085;48.910;9.478;2023-02-02T09:18:42;98951.19;;;5.07;83.38
36284;BME280;56085;48.910;9.478;2023-02-02T09:21:09;98944.59;;;5.09;83.72
36284;BME280;56085;48.910;9.478;2023-02-02T09:23:35;98951.72;;;5.10;83.76
36284;BME280;56085;48.910;9.478;2023-02-02T09:28:38;98956.88;;;5.11;83.87
36284;BME280;56085;48.910;9.478;2023-02-02T09:31:04;98943.19;;;5.11;83.90
36284;BME280;56085;48.910;9.478;2023-02-02T09:33:29;98968.34;;;5.13;83.79
36284;BME280;56085;48.910;9.478;2023-02-02T09:35:54;98962.06;;;5.13;83.92
36284;BME280;56085;48.910;9.478;2023-02-02T09:38:20;98955.75;;;5.12;83.64
36284;BME280;56085;48.910;9.478;2023-02-02T09:40:45;98964.81;;;5.13;83.66
36284;BME280;56085;48.910;9.478;2023-02-02T09:43:16;98962.38;;;5.11;83.82
36284;BME280;56085;48.910;9.478;2023-02-02T09:45:53;98970.28;;;5.13;83.49
36284;BME280;56085;48.910;9.478;2023-02-02T09:51:02;98972.72;;;5.14;83.82
36284;BME280;56085;48.910;9.478;2023-02-02T09:53:34;98974.44;;;5.10;83.97
36284;BME280;56085;48.910;9.478;2023-02-02T09:56:03;98976.88;;;5.12;83.88
36284;BME280;56085;48.910;9.478;2023-02-02T09:58:31;98980.41;;;5.12;84.34
36284;BME280;56085;48.910;9.478;2023-02-02T10:03:36;98974.63;;;5.14;84.59
36284;BME280;56085;48.910;9.478;2023-02-02T10:06:12;98976.97;;;5.20;84.23
36284;BME280;56085;48.910;9.478;2023-02-02T10:08:44;98981.81;;;5.23;84.68
36284;BME280;56085;48.910;9.478;2023-02-02T10:11:29;98975.94;;;5.30;84.52
36284;BME280;56085;48.910;9.478;2023-02-02T10:13:56;98966.38;;;5.28;84.31
36284;BME280;56085;48.910;9.478;2023-02-02T10:16:22;98971.06;;;5.27;83.93
36284;BME280;56085;48.910;9.478;2023-02-02T10:21:38;98983.84;;;5.32;83.69
36284;BME280;56085;48.910;9.478;2023-02-02T10:24:00;98975.09;;;5.30;83.77
36284;BME280;56085;48.910;9.478;2023-02-02T10:26:36;98977.34;;;5.28;84.59
36284;BME280;56085;48.910;9.478;2023-02-02T10:29:14;98986.56;;;5.32;84.86
36284;BME280;56085;48.910;9.478;2023-02-02T10:31:47;98981.41;;;5.30;84.55
36284;BME280;56085;48.910;9.478;2023-02-02T10:34:16;98977.91;;;5.38;84.29
36284;BME280;56085;48.910;9.478;2023-02-02T10:41:34;98983.91;;;5.40;84.39
36284;BME280;56085;48.910;9.478;2023-02-02T10:46:32;98972.94;;;5.40;84.96
36284;BME280;56085;48.910;9.478;2023-02-02T10:49:13;98972.00;;;5.45;84.88
36284;BME280;56085;48.910;9.478;2023-02-02T10:51:40;98985.78;;;5.54;84.22
36284;BME280;56085;48.910;9.478;2023-02-02T10:54:17;98983.03;;;5.54;85.28
36284;BME280;56085;48.910;9.478;2023-02-02T10:56:46;98979.59;;;5.48;84.62
36284;BME280;56085;48.910;9.478;2023-02-02T10:59:18;99003.28;;;5.44;85.27
36284;BME280;56085;48.910;9.478;2023-02-02T11:01:45;98986.53;;;5.46;84.68
36284;BME280;56085;48.910;9.478;2023-02-02T11:04:12;98988.63;;;5.49;85.61
36284;BME280;56085;48.910;9.478;2023-02-02T11:06:56;98996.69;;;5.45;84.74
36284;BME280;56085;48.910;9.478;2023-02-02T11:09:25;98985.72;;;5.45;84.49
36284;BME280;56085;48.910;9.478;2023-02-02T11:11:54;98990.09;;;5.46;84.85
36284;BME280;56085;48.910;9.478;2023-02-02T11:14:29;98989.41;;;5.40;85.21
36284;BME280;56085;48.910;9.478;2023-02-02T11:17:00;98982.16;;;5.45;84.71
36284;BME280;56085;48.910;9.478;2023-02-02T11:19:30;98982.91;;;5.36;85.29
36284;BME280;56085;48.910;9.478;2023-02-02T11:21:56;98997.72;;;5.35;84.72
36284;BME280;56085;48.910;9.478;2023-02-02T11:24:28;98993.03;;;5.36;85.21
36284;BME280;56085;48.910;9.478;2023-02-02T11:26:55;98994.69;;;5.37;84.53
36284;BME280;56085;48.910;9.478;2023-02-02T11:29:27;98989.19;;;5.37;84.68
36284;BME280;56085;48.910;9.478;2023-02-02T11:31:53;99005.16;;;5.35;84.47
36284;BME280;56085;48.910;9.478;2023-02-02T11:34:21;98981.28;;;5.35;85.28
36284;BME280;56085;48.910;9.478;2023-02-02T11:39:30;99001.00;;;5.37;84.75
36284;BME280;56085;48.910;9.478;2023-02-02T11:42:05;98987.56;;;5.36;84.60
36284;BME280;56085;48.910;9.478;2023-02-02T11:44:31;98990.03;;;5.37;84.41
36284;BME280;56085;48.910;9.478;2023-02-02T11:46:59;99003.97;;;5.27;84.19
36284;BME280;56085;48.910;9.478;2023-02-02T11:49:26;98983.13;;;5.26;84.62
36284;BME280;56085;48.910;9.478;2023-02-02T11:51:59;98994.59;;;5.28;84.63
36284;BME280;56085;48.910;9.478;2023-02-02T11:54:28;98982.31;;;5.25;84.42
36284;BME280;56085;48.910;9.478;2023-02-02T11:56:56;98983.94;;;5.27;84.78
36284;BME280;56085;48.910;9.478;2023-02-02T11:59:27;98991.06;;;5.28;84.37
36284;BME280;56085;48.910;9.478;2023-02-02T12:02:09;98991.69;;;5.24;84.42
36284;BME280;56085;48.910;9.478;2023-02-02T12:04:38;98994.41;;;5.24;84.81
36284;BME280;56085;48.910;9.478;2023-02-02T12:07:23;98998.28;;;5.23;84.97
36284;BME280;56085;48.910;9.478;2023-02-02T12:09:50;99003.75;;;5.23;84.80
36284;BME280;56085;48.910;9.478;2023-02-02T12:14:53;98993.41;;;5.20;85.11
36284;BME280;56085;48.910;9.478;2023-02-02T12:17:26;98997.38;;;5.14;85.08
36284;BME280;56085;48.910;9.478;2023-02-02T12:20:02;98990.28;;;5.13;84.96
36284;BME280;56085;48.910;9.478;2023-02-02T12:22:34;98979.63;;;5.12;85.03
36284;BME280;56085;48.910;9.478;2023-02-02T12:27:56;98977.50;;;5.09;85.63
36284;BME280;56085;48.910;9.478;2023-02-02T12:30:38;98987.63;;;5.08;84.82
36284;BME280;56085;48.910;9.478;2023-02-02T12:38:02;98988.56;;;5.03;85.77
36284;BME280;56085;48.910;9.478;2023-02-02T12:53:34;98981.19;;;4.90;85.99
36284;BME280;56085;48.910;9.478;2023-02-02T12:56:13;98977.00;;;4.93;86.43
36284;BME280;56085;48.910;9.478;2023-02-02T12:58:50;98989.91;;;4.92;86.74
36284;BME280;56085;48.910;9.478;2023-02-02T13:08:58;98992.03;;;4.95;87.01
36284;BME280;56085;48.910;9.478;2023-02-02T13:14:07;98987.19;;;4.78;87.23
36284;BME280;56085;48.910;9.478;2023-02-02T13:16:34;98993.16;;;4.80;87.92
36284;BME280;56085;48.910;9.478;2023-02-02T13:19:03;99002.38;;;4.84;87.59
36284;BME280;56085;48.910;9.478;2023-02-02T13:21:30;98994.16;;;4.84;88.21
36284;BME280;56085;48.910;9.478;2023-02-02T13:23:56;98997.44;;;4.86;87.86
36284;BME280;56085;48.910;9.478;2023-02-02T13:26:28;98994.16;;;4.84;88.18
36284;BME280;56085;48.910;9.478;2023-02-02T13:29:04;99004.03;;;4.85;88.04
36284;BME280;56085;48.910;9.478;2023-02-02T13:31:34;99000.66;;;4.88;88.44
36284;BME280;56085;48.910;9.478;2023-02-02T13:34:05;98992.66;;;4.92;88.69
36284;BME280;56085;48.910;9.478;2023-02-02T13:36:37;99020.25;;;4.96;88.14
36284;BME280;56085;48.910;9.478;2023-02-02T13:39:09;99004.00;;;4.99;88.47
36284;BME280;56085;48.910;9.478;2023-02-02T13:41:38;99002.25;;;5.03;87.53
36284;BME280;56085;48.910;9.478;2023-02-02T13:44:08;99017.50;;;5.10;87.72
36284;BME280;56085;48.910;9.478;2023-02-02T13:49:19;99025.09;;;5.13;88.21
36284;BME280;56085;48.910;9.478;2023-02-02T14:01:48;99039.41;;;5.23;87.26
36284;BME280;56085;48.910;9.478;2023-02-02T14:04:21;99045.09;;;5.27;87.12
36284;BME280;56085;48.910;9.478;2023-02-02T14:06:54;99032.19;;;5.28;87.85
36284;BME280;56085;48.910;9.478;2023-02-02T14:09:21;99047.22;;;5.30;87.50
36284;BME280;56085;48.910;9.478;2023-02-02T14:11:53;99039.78;;;5.31;87.43
36284;BME280;56085;48.910;9.478;2023-02-02T14:14:20;99044.97;;;5.32;87.30
36284;BME280;56085;48.910;9.478;2023-02-02T14:16:55;99045.16;;;5.36;86.78
36284;BME280;56085;48.910;9.478;2023-02-02T14:27:01;99052.78;;;5.39;86.36
36284;BME280;56085;48.910;9.478;2023-02-02T14:31:55;99059.06;;;5.39;86.35
36284;BME280;56085;48.910;9.478;2023-02-02T14:34:31;99054.91;;;5.42;86.35
36284;BME280;56085;48.910;9.478;2023-02-02T14:39:33;99056.81;;;5.41;86.07
36284;BME280;56085;48.910;9.478;2023-02-02T14:42:25;99052.16;;;5.42;86.02
36284;BME280;56085;48.910;9.478;2023-02-02T14:50:25;99061.50;;;5.41;85.66
36284;BME280;56085;48.910;9.478;2023-02-02T14:53:04;99065.88;;;5.42;85.50
36284;BME280;56085;48.910;9.478;2023-02-02T14:55:32;99061.19;;;5.42;86.10